createdAt,value
2022-11-11T00:01:44.517Z,102880.56
2022-11-11T00:04:29.710Z,102880.88
2022-11-11T00:07:15.250Z,102886.25
2022-11-11T00:10:00.528Z,102881.84
2022-11-11T00:12:46.136Z,102886.28
2022-11-11T00:15:31.824Z,102887.66
2022-11-11T00:18:35.734Z,102885.91
2022-11-11T00:21:39.482Z,102887.22
2022-11-11T00:24:48.461Z,102902.59
2022-11-11T00:27:39.412Z,102897.78
2022-11-11T00:30:24.997Z,102891.69
2022-11-11T00:33:10.432Z,102890.06
2022-11-11T00:35:56.146Z,102888.97
2022-11-11T00:38:49.663Z,102892.00
2022-11-11T00:41:35.146Z,102893.50
2022-11-11T00:44:20.418Z,102891.34
2022-11-11T00:47:24.453Z,102887.69
2022-11-11T00:50:35.024Z,102887.16
2022-11-11T00:53:27.310Z,102900.69
2022-11-11T00:56:13.424Z,102898.13
2022-11-11T00:58:58.855Z,102904.69
2022-11-11T01:01:44.211Z,102911.00
2022-11-11T01:04:29.358Z,102914.63
2022-11-11T01:07:14.774Z,102914.00
2022-11-11T01:10:00.428Z,102906.44
2022-11-11T01:12:45.902Z,102914.09
2022-11-11T01:15:33.779Z,102912.81
2022-11-11T01:18:25.330Z,102917.16
2022-11-11T01:21:17.156Z,102919.84
2022-11-11T01:24:02.849Z,102917.00
2022-11-11T01:26:48.236Z,102916.13
2022-11-11T01:29:33.860Z,102912.97
2022-11-11T01:32:19.306Z,102904.47
2022-11-11T01:35:04.656Z,102907.66
2022-11-11T01:37:50.434Z,102897.91
2022-11-11T01:40:46.764Z,102898.63
2022-11-11T01:43:32.743Z,102893.78
2022-11-11T01:46:29.216Z,102906.31
2022-11-11T01:49:51.462Z,102901.56
2022-11-11T01:52:40.524Z,102901.94
2022-11-11T01:55:26.864Z,102895.28
2022-11-11T01:58:16.510Z,102890.28
2022-11-11T02:01:02.685Z,102889.31
2022-11-11T02:04:10.444Z,102890.13
2022-11-11T02:07:00.972Z,102887.06
2022-11-11T02:09:48.437Z,102894.47
2022-11-11T02:12:52.593Z,102895.41
2022-11-11T02:15:38.678Z,102898.59
2022-11-11T02:18:25.521Z,102902.44
2022-11-11T02:21:18.948Z,102909.88
2022-11-11T02:24:11.445Z,102904.91
2022-11-11T02:26:59.151Z,102909.03
2022-11-11T02:29:49.054Z,102895.88
2022-11-11T02:32:34.021Z,102898.31
2022-11-11T02:35:22.566Z,102891.84
2022-11-11T02:38:08.976Z,102903.34
2022-11-11T02:41:13.280Z,102905.78
2022-11-11T02:43:58.839Z,102907.56
2022-11-11T02:46:44.228Z,102904.16
2022-11-11T02:49:29.604Z,102908.34
2022-11-11T02:52:14.919Z,102914.97
2022-11-11T02:55:00.688Z,102910.91
2022-11-11T02:57:45.936Z,102914.06
2022-11-11T03:00:31.116Z,102907.47
2022-11-11T03:03:16.744Z,102911.19
2022-11-11T03:06:01.870Z,102922.75
2022-11-11T03:08:47.477Z,102915.75
2022-11-11T03:11:33.777Z,102918.47
2022-11-11T03:14:19.200Z,102913.78
2022-11-11T03:17:23.033Z,102922.53
2022-11-11T03:20:37.554Z,102920.91
2022-11-11T03:23:23.271Z,102928.13
2022-11-11T03:26:09.238Z,102931.31
2022-11-11T03:28:54.674Z,102925.56
2022-11-11T03:31:40.606Z,102929.06
2022-11-11T03:34:26.145Z,102923.91
2022-11-11T03:37:30.530Z,102930.22
2022-11-11T03:40:15.875Z,102926.13
2022-11-11T03:43:04.815Z,102935.34
2022-11-11T03:45:52.166Z,102931.13
2022-11-11T03:48:37.752Z,102932.72
2022-11-11T03:51:22.780Z,102928.59
2022-11-11T03:54:08.215Z,102938.31
2022-11-11T03:57:13.871Z,102939.84
2022-11-11T03:59:59.617Z,102932.28
2022-11-11T04:03:03.442Z,102939.09
2022-11-11T04:06:07.310Z,102944.81
2022-11-11T04:09:11.389Z,102949.09
2022-11-11T04:11:56.411Z,102947.44
2022-11-11T04:15:00.084Z,102951.38
2022-11-11T04:17:45.806Z,102949.44
2022-11-11T04:20:49.718Z,102939.25
2022-11-11T04:23:35.235Z,102939.56
2022-11-11T04:26:21.434Z,102948.72
2022-11-11T04:29:25.209Z,102942.13
2022-11-11T04:32:31.489Z,102947.84
2022-11-11T04:35:16.908Z,102949.97
2022-11-11T04:38:20.777Z,102948.44
2022-11-11T04:41:09.012Z,102948.06
2022-11-11T04:44:13.040Z,102951.41
2022-11-11T04:46:58.633Z,102946.41
2022-11-11T04:49:43.706Z,102954.03
2022-11-11T04:52:31.441Z,102961.44
2022-11-11T04:55:35.616Z,102962.59
2022-11-11T04:58:23.251Z,102960.59
2022-11-11T05:01:08.259Z,102958.78
2022-11-11T05:03:53.668Z,102961.63
2022-11-11T05:06:59.703Z,102974.38
2022-11-11T05:09:45.290Z,102965.94
2022-11-11T05:12:32.865Z,102963.06
2022-11-11T05:15:36.529Z,102974.06
2022-11-11T05:18:40.416Z,102972.97
2022-11-11T05:21:29.813Z,102973.88
2022-11-11T05:24:33.651Z,102975.78
2022-11-11T05:27:18.843Z,102987.09
2022-11-11T05:30:04.785Z,102987.09
2022-11-11T05:32:50.449Z,102992.50
2022-11-11T05:35:38.042Z,102990.81
2022-11-11T05:38:23.392Z,102995.78
2022-11-11T05:41:09.564Z,102989.22
2022-11-11T05:43:55.347Z,102994.66
2022-11-11T05:46:41.058Z,103000.34
2022-11-11T05:49:27.204Z,103008.47
2022-11-11T05:52:13.837Z,103007.06
2022-11-11T05:54:59.379Z,103012.44
2022-11-11T05:57:45.030Z,103013.88
2022-11-11T06:00:30.633Z,103011.72
2022-11-11T06:03:15.847Z,103019.41
2022-11-11T06:06:01.370Z,103018.06
2022-11-11T06:08:46.832Z,103018.59
2022-11-11T06:11:33.095Z,103026.19
2022-11-11T06:14:18.732Z,103036.84
2022-11-11T06:17:04.406Z,103024.94
2022-11-11T06:19:49.559Z,103026.31
2022-11-11T06:22:54.515Z,103032.56
2022-11-11T06:25:58.659Z,103037.56
2022-11-11T06:28:52.505Z,103036.91
2022-11-11T06:31:38.049Z,103030.31
2022-11-11T06:34:23.324Z,103030.16
2022-11-11T06:37:08.924Z,103042.69
2022-11-11T06:39:54.252Z,103038.59
2022-11-11T06:42:39.692Z,103047.41
2022-11-11T06:45:26.958Z,103047.41
2022-11-11T06:48:12.605Z,103050.94
2022-11-11T06:51:04.312Z,103059.22
2022-11-11T06:53:51.046Z,103062.41
2022-11-11T06:56:36.523Z,103058.25
2022-11-11T06:59:21.793Z,103061.13
2022-11-11T07:02:12.650Z,103059.38
2022-11-11T07:04:58.177Z,103056.00
2022-11-11T07:07:43.344Z,103064.31
2022-11-11T07:10:28.829Z,103062.94
2022-11-11T07:13:17.365Z,103066.22
2022-11-11T07:16:02.412Z,103073.00
2022-11-11T07:18:47.781Z,103070.66
2022-11-11T07:21:33.168Z,103076.09
2022-11-11T07:24:18.304Z,103071.28
2022-11-11T07:27:03.798Z,103076.16
2022-11-11T07:29:49.411Z,103069.72
2022-11-11T07:32:35.545Z,103072.44
2022-11-11T07:35:22.128Z,103075.25
2022-11-11T07:38:07.525Z,103073.78
2022-11-11T07:40:52.939Z,103073.06
2022-11-11T07:43:38.280Z,103075.88
2022-11-11T07:46:23.896Z,103075.28
2022-11-11T07:49:09.326Z,103073.94
2022-11-11T07:51:54.836Z,103075.66
2022-11-11T07:54:40.181Z,103082.47
2022-11-11T07:57:25.875Z,103080.47
2022-11-11T08:00:11.741Z,103092.44
2022-11-11T08:02:59.048Z,103090.34
2022-11-11T08:05:44.771Z,103085.31
2022-11-11T08:08:29.993Z,103088.31
2022-11-11T08:11:16.720Z,103100.16
2022-11-11T08:14:02.643Z,103102.25
2022-11-11T08:16:48.227Z,103105.44
2022-11-11T08:19:33.510Z,103104.81
2022-11-11T08:22:19.101Z,103104.94
2022-11-11T08:25:10.662Z,103104.94
2022-11-11T08:28:05.082Z,103107.25
2022-11-11T08:30:50.225Z,103106.75
2022-11-11T08:33:35.580Z,103113.09
2022-11-11T08:36:23.840Z,103112.44
2022-11-11T08:39:09.979Z,103116.91
2022-11-11T08:41:55.403Z,103112.75
2022-11-11T08:44:40.932Z,103116.28
2022-11-11T08:47:26.910Z,103120.22
2022-11-11T08:50:13.557Z,103117.16
2022-11-11T08:52:59.190Z,103123.31
2022-11-11T08:55:44.550Z,103120.34
2022-11-11T08:58:30.896Z,103122.88
2022-11-11T09:01:16.422Z,103115.31
2022-11-11T09:04:22.959Z,103109.84
2022-11-11T09:07:12.241Z,103117.22
2022-11-11T09:09:58.215Z,103106.69
2022-11-11T09:12:43.658Z,103107.47
2022-11-11T09:15:31.161Z,103113.91
2022-11-11T09:18:16.779Z,103109.84
2022-11-11T09:21:02.250Z,103108.31
2022-11-11T09:23:47.499Z,103117.41
2022-11-11T09:26:33.036Z,103122.34
2022-11-11T09:29:19.210Z,103129.88
2022-11-11T09:32:05.491Z,103124.59
2022-11-11T09:34:50.996Z,103129.47
2022-11-11T09:37:36.661Z,103127.47
2022-11-11T09:40:24.325Z,103117.66
2022-11-11T09:43:18.870Z,103134.88
2022-11-11T09:46:36.410Z,103126.50
2022-11-11T09:49:38.719Z,103133.31
2022-11-11T09:52:28.023Z,103133.72
2022-11-11T09:55:43.158Z,103137.78
2022-11-11T09:58:34.491Z,103133.31
2022-11-11T10:01:29.550Z,103134.84
2022-11-11T10:04:34.736Z,103139.06
2022-11-11T10:07:44.898Z,103127.88
2022-11-11T10:10:52.811Z,103132.75
2022-11-11T10:13:39.298Z,103124.91
2022-11-11T10:16:31.147Z,103124.91
2022-11-11T10:19:34.850Z,103107.41
2022-11-11T10:22:23.150Z,103110.81
2022-11-11T10:25:23.830Z,103111.91
2022-11-11T10:28:17.526Z,103104.50
2022-11-11T10:31:06.455Z,103113.66
2022-11-11T10:34:02.608Z,103108.47
2022-11-11T10:36:55.390Z,103112.06
2022-11-11T10:40:09.449Z,103104.41
2022-11-11T10:42:55.723Z,103109.03
2022-11-11T10:45:51.306Z,103102.91
2022-11-11T10:48:56.106Z,103105.09
2022-11-11T10:52:07.854Z,103109.03
2022-11-11T10:55:04.933Z,103095.97
2022-11-11T10:58:01.197Z,103097.31
2022-11-11T11:00:51.792Z,103094.88
2022-11-11T11:04:09.489Z,103089.97
2022-11-11T11:06:58.297Z,103081.28
2022-11-11T11:10:30.687Z,103083.34
2022-11-11T11:13:46.491Z,103086.47
2022-11-11T11:16:37.271Z,103075.84
2022-11-11T11:19:25.658Z,103075.09
2022-11-11T11:22:11.072Z,103078.06
2022-11-11T11:25:12.714Z,103076.53
2022-11-11T11:28:24.652Z,103074.91
2022-11-11T11:31:10.673Z,103045.06
2022-11-11T11:34:09.758Z,103080.16
2022-11-11T11:37:01.998Z,103082.03
2022-11-11T11:39:48.432Z,103071.44
2022-11-11T11:42:39.479Z,103065.38
2022-11-11T11:45:30.088Z,103064.59
2022-11-11T11:48:48.138Z,103074.59
2022-11-11T11:51:52.575Z,103072.88
2022-11-11T11:55:01.529Z,103071.06
2022-11-11T11:57:54.537Z,103061.31
2022-11-11T12:01:13.449Z,103060.09
2022-11-11T12:04:19.205Z,103054.78
2022-11-11T12:07:11.414Z,103053.19
2022-11-11T12:10:15.712Z,103055.09
2022-11-11T12:13:26.212Z,103043.16
2022-11-11T12:16:14.911Z,103032.69
2022-11-11T12:19:21.807Z,103028.69
2022-11-11T12:22:19.077Z,103026.16
2022-11-11T12:25:19.799Z,103027.66
2022-11-11T12:28:33.315Z,103033.78
2022-11-11T12:31:32.484Z,103017.72
2022-11-11T12:34:20.667Z,103015.72
2022-11-11T12:37:42.343Z,103025.72
2022-11-11T12:40:51.697Z,103018.19
2022-11-11T12:43:54.423Z,103013.91
2022-11-11T12:47:19.945Z,103006.13
2022-11-11T12:50:24.267Z,103006.72
2022-11-11T12:53:37.040Z,103009.88
2022-11-11T12:56:52.412Z,103008.44
2022-11-11T12:59:47.668Z,103003.56
2022-11-11T13:03:10.749Z,103004.28
2022-11-11T13:06:21.585Z,102999.84
2022-11-11T13:09:19.470Z,103006.94
2022-11-11T13:12:35.654Z,103004.56
2022-11-11T13:15:30.312Z,102996.84
2022-11-11T13:18:40.958Z,102994.19
2022-11-11T13:21:47.205Z,102989.75
2022-11-11T13:24:37.900Z,102989.75
2022-11-11T13:30:48.481Z,102989.72
2022-11-11T13:33:44.305Z,102995.78
2022-11-11T13:36:42.125Z,102969.22
2022-11-11T13:39:32.693Z,102975.97
2022-11-11T13:42:28.318Z,102981.88
2022-11-11T13:45:43.516Z,102977.91
2022-11-11T13:48:49.154Z,102974.09
2022-11-11T13:51:45.380Z,102985.16
2022-11-11T13:54:33.934Z,102991.91
2022-11-11T14:10:59.536Z,102996.88
2022-11-11T14:52:23.272Z,103001.63
2022-11-11T14:59:05.813Z,103002.31
2022-11-11T15:21:32.196Z,103001.56
2022-11-11T15:47:30.430Z,103007.50
2022-11-11T15:54:56.451Z,103009.63
2022-11-11T16:07:42.379Z,102983.16
2022-11-11T16:10:34.239Z,103011.16
2022-11-11T16:23:25.790Z,102986.63
2022-11-11T16:30:46.083Z,102998.25
2022-11-11T16:33:33.432Z,102999.53
2022-11-11T16:36:19.043Z,102996.91
2022-11-11T16:39:28.260Z,103003.94
2022-11-11T16:42:22.845Z,103004.78
2022-11-11T16:45:39.964Z,103013.47
2022-11-11T16:51:52.932Z,102994.81
2022-11-11T16:55:33.159Z,103018.28
2022-11-11T16:58:25.781Z,103011.47
2022-11-11T17:01:11.926Z,103020.91
2022-11-11T17:03:59.500Z,102992.84
2022-11-11T17:07:02.169Z,103008.66
2022-11-11T17:09:47.909Z,103024.50
2022-11-11T17:12:33.334Z,103028.94
2022-11-11T17:15:21.546Z,103033.84
2022-11-11T17:18:09.404Z,103025.94
2022-11-11T17:20:56.392Z,103032.84
2022-11-11T17:23:45.511Z,103021.28
2022-11-11T17:26:31.903Z,103024.91
2022-11-11T17:29:17.200Z,103021.59
2022-11-11T17:32:06.550Z,103029.06
2022-11-11T17:35:16.771Z,103022.06
2022-11-11T17:38:05.079Z,103004.72
2022-11-11T17:40:53.145Z,103027.06
2022-11-11T17:43:38.290Z,103017.44
2022-11-11T17:46:24.019Z,103036.00
2022-11-11T17:49:09.690Z,103036.00
2022-11-11T17:51:55.734Z,103030.72
2022-11-11T17:54:41.161Z,103033.84
2022-11-11T17:57:26.699Z,103031.16
2022-11-11T18:00:12.889Z,103042.28
2022-11-11T18:02:58.833Z,103041.69
2022-11-11T18:05:44.392Z,103053.56
2022-11-11T18:08:31.182Z,103054.16
2022-11-11T18:11:16.818Z,103045.69
2022-11-11T18:14:02.716Z,103062.31
2022-11-11T18:16:48.196Z,103056.28
2022-11-11T18:19:33.668Z,103050.38
2022-11-11T18:31:34.388Z,103071.50
2022-11-11T18:34:21.202Z,103068.19
2022-11-11T18:37:49.496Z,103067.53
2022-11-11T18:40:35.462Z,103066.63
2022-11-11T18:43:21.067Z,103049.31
2022-11-11T18:46:16.395Z,103060.16
2022-11-11T18:49:05.976Z,103056.50
2022-11-11T18:51:57.365Z,103062.66
2022-11-11T18:54:42.933Z,103055.44
2022-11-11T18:57:29.094Z,103070.06
2022-11-11T19:00:14.635Z,103070.28
2022-11-11T19:03:03.168Z,103069.06
2022-11-11T19:05:49.157Z,103059.72
2022-11-11T19:08:36.025Z,103073.19
2022-11-11T19:11:22.289Z,103075.19
2022-11-11T19:14:09.224Z,103074.97
2022-11-11T19:16:54.524Z,103068.44
2022-11-11T19:19:39.952Z,103074.34
2022-11-11T19:22:25.795Z,103061.66
2022-11-11T19:25:11.623Z,103060.50
2022-11-11T19:27:57.633Z,103071.59
2022-11-11T19:30:43.850Z,103075.69
2022-11-11T19:33:29.645Z,103075.78
2022-11-11T19:36:19.031Z,103085.63
2022-11-11T19:39:05.124Z,103085.25
2022-11-11T19:41:50.858Z,103081.03
2022-11-11T19:44:36.563Z,103089.03
2022-11-11T19:47:25.395Z,103087.41
2022-11-11T19:50:11.825Z,103097.53
2022-11-11T19:52:57.551Z,103103.09
2022-11-11T19:55:43.343Z,103111.31
2022-11-11T19:58:29.606Z,103099.09
2022-11-11T20:01:21.211Z,103096.19
2022-11-11T20:04:07.093Z,103096.91
2022-11-11T20:06:52.334Z,103086.66
2022-11-11T20:09:37.838Z,103093.88
2022-11-11T20:12:23.577Z,103085.66
2022-11-11T20:15:09.759Z,103095.47
2022-11-11T20:17:55.598Z,103104.25
2022-11-11T20:20:43.913Z,103089.25
2022-11-11T20:23:29.924Z,103093.94
2022-11-11T20:26:16.989Z,103096.41
2022-11-11T20:29:02.563Z,103095.09
2022-11-11T20:31:47.796Z,103091.81
2022-11-11T20:34:34.437Z,103089.66
2022-11-11T20:37:19.815Z,103089.56
2022-11-11T20:40:05.859Z,103086.13
2022-11-11T20:42:51.372Z,103084.28
2022-11-11T20:45:36.557Z,103091.00
2022-11-11T20:48:21.859Z,103088.94
2022-11-11T20:51:08.373Z,103088.69
2022-11-11T20:53:58.840Z,103083.69
2022-11-11T20:56:45.592Z,103084.00
2022-11-11T20:59:31.488Z,103090.53
2022-11-11T21:02:22.856Z,103097.09
2022-11-11T21:05:12.636Z,103098.84
2022-11-11T21:07:58.370Z,103098.81
2022-11-11T21:10:43.849Z,103099.44
2022-11-11T21:13:30.490Z,103107.59
2022-11-11T21:16:21.856Z,103104.13
2022-11-11T21:19:08.226Z,103094.19
2022-11-11T21:21:55.008Z,103100.44
2022-11-11T21:24:40.446Z,103090.16
2022-11-11T21:27:31.393Z,103097.06
2022-11-11T21:30:19.622Z,103092.22
2022-11-11T21:33:08.231Z,103091.13
2022-11-11T21:36:00.490Z,103090.44
2022-11-11T21:38:46.420Z,103088.44
2022-11-11T21:41:36.490Z,103092.66
2022-11-11T21:44:21.495Z,103095.09
2022-11-11T21:47:06.826Z,103081.03
2022-11-11T21:49:52.234Z,103086.63
2022-11-11T21:52:37.496Z,103090.00
2022-11-11T21:55:23.273Z,103083.13
2022-11-11T21:58:08.685Z,103083.59
2022-11-11T22:00:54.229Z,103079.19
2022-11-11T22:03:41.779Z,103085.91
2022-11-11T22:06:28.204Z,103081.19
2022-11-11T22:09:13.541Z,103077.91
2022-11-11T22:11:59.096Z,103084.03
2022-11-11T22:14:44.292Z,103083.38
2022-11-11T22:17:29.658Z,103078.94
2022-11-11T22:20:15.181Z,103073.66
2022-11-11T22:23:00.817Z,103081.03
2022-11-11T22:25:46.510Z,103080.22
2022-11-11T22:28:33.862Z,103080.31
2022-11-11T22:31:28.163Z,103084.59
2022-11-11T22:34:14.748Z,103070.44
2022-11-11T22:36:59.829Z,103074.22
2022-11-11T22:39:45.430Z,103079.13
2022-11-11T22:42:30.988Z,103068.69
2022-11-11T22:45:16.584Z,103084.75
2022-11-11T22:48:02.044Z,103079.81
2022-11-11T22:50:47.310Z,103079.09
2022-11-11T22:53:32.723Z,103078.31
2022-11-11T22:56:19.859Z,103071.50
2022-11-11T22:59:05.419Z,103062.72
2022-11-11T23:01:51.276Z,103063.53
2022-11-11T23:04:36.581Z,103057.44
2022-11-11T23:07:22.201Z,103066.25
2022-11-11T23:10:08.128Z,103066.59
2022-11-11T23:12:58.508Z,103055.84
2022-11-11T23:15:52.564Z,103050.59
2022-11-11T23:18:38.703Z,103050.69
2022-11-11T23:21:25.854Z,103053.66
2022-11-11T23:24:11.366Z,103049.31
2022-11-11T23:26:59.970Z,103046.03
2022-11-11T23:29:51.167Z,103043.72
2022-11-11T23:32:37.661Z,103037.38
2022-11-11T23:35:23.397Z,103040.09
2022-11-11T23:38:09.104Z,103027.94
2022-11-11T23:40:54.839Z,103020.06
2022-11-11T23:43:40.453Z,103025.66
2022-11-11T23:46:25.748Z,103016.69
2022-11-11T23:49:10.711Z,103020.75
2022-11-11T23:51:55.958Z,103018.13
2022-11-11T23:54:41.432Z,103013.91
2022-11-11T23:57:26.815Z,103011.22
